logo dgac
Viernes 01 de Julio del 2022
Buscar por aerodromo o helipuerto
Ingrese nombre de aeródromo, localidad o designador OACI:
TAF: TAF SCCH 011100Z 0112/0124 32009KT 9999 SCT020 BKN050 TX13/0118Z TN09/0112Z TEMPO 0112/0114 18004KT 7000 SHRA BECMG 0116/0118 9999 SCT020
TAF del 01/07/2022 a las 11:00 UTC
Para mayor información visite www.meteochile.cl
Período de validez: desde el 01 a las 12:00 UTC hasta el 01 a las 24:00 UTC
Viento: dirección 320 grados, velocidad 9 nudos
Visibilidad: 10 km o más
Nubes: Nubosidad parcial a 2000 pies sobre el nivel del aeródromo
Nubes: Nublado a 5000 pies sobre el nivel del aeródromo
Temperatura máxima: 13ºC el 01 a las 18:00 UTC
Temperatura mínima: 9ºC el 01 a las 12:00 UTC
Se espera en forma temporal entre las 12:00 UTC del 01 y las 14:00 UTC del 01:
Viento: dirección 180 grados, velocidad 4 nudos
Visibilidad: 7000 metros
ChubascosLluvia
Se espera un cambio entre las 16:00 UTC del 01 y las 18:00 UTC del 01, :
Visibilidad: 10 km o más
Nubes: Nubosidad parcial a 2000 pies sobre el nivel del aeródromo